createdAt,value
2022-09-03T00:02:22.628Z,97.53
2022-09-03T00:05:01.783Z,97.36
2022-09-03T00:07:43.567Z,96.79
2022-09-03T00:10:21.145Z,98.51
2022-09-03T00:12:53.501Z,98.43
2022-09-03T00:15:25.146Z,97.82
2022-09-03T00:17:59.611Z,97.51
2022-09-03T00:20:34.462Z,96.35
2022-09-03T00:23:09.779Z,98.77
2022-09-03T00:25:44.417Z,96.77
2022-09-03T00:28:19.919Z,97.81
2022-09-03T00:30:58.511Z,99.62
2022-09-03T00:33:33.772Z,100.00
2022-09-03T00:36:15.935Z,100.00
2022-09-03T00:38:45.882Z,100.00
2022-09-03T00:41:31.560Z,100.00
2022-09-03T00:44:43.430Z,100.00
2022-09-03T00:47:19.997Z,100.00
2022-09-03T00:50:05.290Z,99.65
2022-09-03T00:52:49.064Z,100.00
2022-09-03T00:55:32.705Z,99.31
2022-09-03T00:58:27.494Z,97.85
2022-09-03T01:00:56.582Z,95.30
2022-09-03T01:03:37.160Z,96.26
2022-09-03T01:06:20.178Z,96.57
2022-09-03T01:09:21.735Z,93.07
2022-09-03T01:12:02.120Z,93.45
2022-09-03T01:14:47.490Z,94.19
2022-09-03T01:17:34.098Z,93.80
2022-09-03T01:20:28.647Z,96.16
2022-09-03T01:23:37.032Z,96.34
2022-09-03T01:26:29.051Z,96.34
2022-09-03T01:29:12.507Z,96.05
2022-09-03T01:31:54.762Z,92.78
2022-09-03T01:34:42.893Z,91.41
2022-09-03T01:37:25.569Z,93.26
2022-09-03T01:40:10.853Z,92.29
2022-09-03T01:43:02.372Z,93.11
2022-09-03T01:45:51.542Z,93.36
2022-09-03T01:48:38.747Z,90.19
2022-09-03T01:51:21.293Z,87.81
2022-09-03T01:54:20.799Z,89.45
2022-09-03T01:57:36.598Z,90.56
2022-09-03T02:00:13.211Z,91.43
2022-09-03T02:02:47.881Z,90.53
2022-09-03T02:05:18.650Z,87.52
2022-09-03T02:07:51.864Z,88.77
2022-09-03T02:10:27.926Z,89.58
2022-09-03T02:13:02.275Z,88.14
2022-09-03T02:15:32.666Z,86.79
2022-09-03T02:18:08.686Z,86.82
2022-09-03T02:20:38.688Z,87.02
2022-09-03T02:23:07.357Z,86.41
2022-09-03T02:25:41.147Z,89.90
2022-09-03T02:28:17.470Z,88.51
2022-09-03T02:30:46.142Z,87.21
2022-09-03T02:33:17.079Z,87.43
2022-09-03T02:35:46.413Z,86.88
2022-09-03T02:38:19.514Z,86.69
2022-09-03T02:40:48.584Z,86.69
2022-09-03T02:43:25.757Z,87.40
2022-09-03T02:46:02.631Z,85.80
2022-09-03T02:48:33.082Z,86.94
2022-09-03T02:51:01.363Z,85.76
2022-09-03T02:53:36.286Z,84.97
2022-09-03T02:56:07.680Z,85.29
2022-09-03T02:58:36.140Z,85.27
2022-09-03T03:01:05.558Z,86.09
2022-09-03T03:03:35.204Z,86.08
2022-09-03T03:06:07.252Z,88.58
2022-09-03T03:08:35.605Z,85.21
2022-09-03T03:11:04.421Z,85.17
2022-09-03T03:13:33.918Z,86.32
2022-09-03T03:16:06.841Z,85.46
2022-09-03T03:18:36.665Z,84.05
2022-09-03T03:21:10.099Z,86.24
2022-09-03T03:23:40.629Z,85.72
2022-09-03T03:26:12.198Z,87.29
2022-09-03T03:28:41.309Z,88.13
2022-09-03T03:31:11.352Z,88.93
2022-09-03T03:33:41.932Z,87.44
2022-09-03T03:36:13.787Z,88.57
2022-09-03T03:38:43.600Z,89.63
2022-09-03T03:41:17.740Z,86.87
2022-09-03T03:43:46.909Z,88.98
2022-09-03T03:46:16.060Z,90.00
2022-09-03T03:48:48.786Z,90.21
2022-09-03T03:51:17.627Z,91.36
2022-09-03T03:53:46.980Z,92.36
2022-09-03T03:56:17.451Z,92.22
2022-09-03T03:58:45.728Z,91.54
2022-09-03T04:01:17.489Z,92.58
2022-09-03T04:03:48.033Z,90.17
2022-09-03T04:06:19.398Z,90.27
2022-09-03T04:08:50.810Z,93.22
2022-09-03T04:11:21.956Z,94.14
2022-09-03T04:13:51.990Z,92.75
2022-09-03T04:16:22.809Z,92.38
2022-09-03T04:18:53.993Z,94.86
2022-09-03T04:21:24.841Z,94.26
2022-09-03T04:23:56.396Z,95.97
2022-09-03T04:26:28.362Z,94.92
2022-09-03T04:28:56.827Z,94.77
2022-09-03T04:31:26.564Z,95.54
2022-09-03T04:33:57.243Z,95.02
2022-09-03T04:36:28.821Z,97.71
2022-09-03T04:39:00.498Z,94.17
2022-09-03T04:41:30.972Z,94.49
2022-09-03T04:44:00.901Z,95.62
2022-09-03T04:46:33.647Z,96.91
2022-09-03T04:49:04.454Z,95.13
2022-09-03T04:51:33.282Z,95.50
2022-09-03T04:54:03.275Z,93.00
2022-09-03T04:56:34.047Z,94.23
2022-09-03T04:59:06.565Z,95.11
2022-09-03T05:01:37.410Z,93.14
2022-09-03T05:04:08.852Z,92.15
2022-09-03T05:06:38.423Z,94.14
2022-09-03T05:09:07.731Z,92.23
2022-09-03T05:11:36.090Z,94.95
2022-09-03T05:14:05.906Z,93.98
2022-09-03T05:16:34.568Z,92.00
2022-09-03T05:19:03.733Z,91.53
2022-09-03T05:21:35.798Z,91.76
2022-09-03T05:24:05.782Z,92.11
2022-09-03T05:26:38.978Z,92.25
2022-09-03T05:29:09.017Z,93.50
2022-09-03T05:31:40.315Z,91.91
2022-09-03T05:34:10.212Z,89.01
2022-09-03T05:36:43.622Z,90.32
2022-09-03T05:39:11.868Z,94.60
2022-09-03T05:41:40.381Z,91.95
2022-09-03T05:44:08.646Z,90.70
2022-09-03T05:46:38.005Z,92.40
2022-09-03T05:49:08.905Z,88.73
2022-09-03T05:51:39.484Z,91.03
2022-09-03T05:54:09.825Z,86.07
2022-09-03T05:56:41.254Z,85.72
2022-09-03T05:59:11.219Z,85.04
2022-09-03T06:01:50.702Z,89.09
2022-09-03T06:04:21.549Z,86.64
2022-09-03T06:06:50.571Z,89.15
2022-09-03T06:09:23.113Z,89.98
2022-09-03T06:11:52.469Z,91.65
2022-09-03T06:14:21.806Z,95.84
2022-09-03T06:16:53.043Z,95.09
2022-09-03T06:19:22.009Z,95.76
2022-09-03T06:21:50.587Z,95.55
2022-09-03T06:24:26.367Z,93.20
2022-09-03T06:26:56.734Z,93.34
2022-09-03T06:29:25.576Z,91.65
2022-09-03T06:31:54.283Z,94.52
2022-09-03T06:34:25.619Z,92.03
2022-09-03T06:36:54.664Z,93.71
2022-09-03T06:39:25.789Z,92.38
2022-09-03T06:41:55.084Z,93.35
2022-09-03T06:44:30.349Z,93.99
2022-09-03T06:47:01.434Z,94.66
2022-09-03T06:49:31.489Z,90.88
2022-09-03T06:51:59.976Z,93.34
2022-09-03T06:54:29.649Z,92.52
2022-09-03T06:56:57.943Z,87.95
2022-09-03T06:59:26.904Z,83.93
2022-09-03T07:01:55.379Z,84.87
2022-09-03T07:04:24.922Z,82.06
2022-09-03T07:06:53.170Z,83.70
2022-09-03T07:09:21.462Z,84.13
2022-09-03T07:11:51.052Z,86.75
2022-09-03T07:14:21.602Z,84.07
2022-09-03T07:16:51.469Z,87.46
2022-09-03T07:19:19.952Z,83.27
2022-09-03T07:21:50.795Z,84.66
2022-09-03T07:24:22.277Z,73.97
2022-09-03T07:26:53.589Z,79.25
2022-09-03T07:29:22.069Z,76.81
2022-09-03T07:31:53.011Z,75.44
2022-09-03T07:34:26.550Z,73.44
2022-09-03T07:36:55.410Z,75.76
2022-09-03T07:39:23.853Z,77.18
2022-09-03T07:41:53.808Z,75.19
2022-09-03T07:44:24.442Z,79.29
2022-09-03T07:46:52.981Z,78.63
2022-09-03T07:49:22.438Z,76.81
2022-09-03T07:51:53.999Z,78.86
2022-09-03T07:54:24.202Z,76.12
2022-09-03T07:56:53.977Z,74.73
2022-09-03T07:59:23.122Z,70.15
2022-09-03T08:01:52.205Z,68.02
2022-09-03T08:04:22.012Z,69.93
2022-09-03T08:06:55.356Z,69.88
2022-09-03T08:09:23.698Z,64.75
2022-09-03T08:11:53.671Z,63.51
2022-09-03T08:14:22.320Z,65.86
2022-09-03T08:16:50.585Z,64.98
2022-09-03T08:19:20.175Z,63.59
2022-09-03T08:21:48.574Z,67.78
2022-09-03T08:24:20.999Z,62.17
2022-09-03T08:26:51.973Z,66.97
2022-09-03T08:29:23.077Z,62.96
2022-09-03T08:31:51.984Z,59.62
2022-09-03T08:34:21.406Z,64.29
2022-09-03T08:36:50.338Z,58.85
2022-09-03T08:39:19.718Z,58.33
2022-09-03T08:42:22.500Z,59.41
2022-09-03T08:44:58.219Z,59.58
2022-09-03T08:47:34.119Z,62.16
2022-09-03T08:50:12.664Z,66.61
2022-09-03T08:52:50.062Z,67.96
2022-09-03T08:55:26.603Z,65.18
2022-09-03T08:58:04.393Z,68.81
2022-09-03T09:00:51.481Z,66.41
2022-09-03T09:03:54.244Z,66.66
2022-09-03T09:06:35.409Z,60.24
2022-09-03T09:09:24.980Z,62.21
2022-09-03T09:12:17.385Z,58.62
2022-09-03T09:15:04.766Z,59.72
2022-09-03T09:18:00.253Z,60.23
2022-09-03T09:20:42.671Z,64.80
2022-09-03T09:23:16.815Z,63.32
2022-09-03T09:25:51.125Z,71.18
2022-09-03T09:28:22.903Z,70.26
2022-09-03T09:30:55.288Z,59.55
2022-09-03T09:33:26.264Z,54.15
2022-09-03T09:35:54.836Z,53.40
2022-09-03T09:38:32.254Z,52.96
2022-09-03T09:41:11.796Z,54.41
2022-09-03T09:43:40.832Z,59.45
2022-09-03T09:46:15.040Z,58.86
2022-09-03T09:48:52.835Z,59.00
2022-09-03T09:51:24.682Z,60.97
2022-09-03T09:54:03.533Z,62.86
2022-09-03T09:56:32.443Z,63.59
2022-09-03T09:59:06.172Z,61.55
2022-09-03T10:01:37.639Z,60.98
2022-09-03T10:04:14.241Z,62.47
2022-09-03T10:06:57.908Z,64.32
2022-09-03T10:09:31.339Z,65.47
2022-09-03T10:12:15.364Z,63.00
2022-09-03T10:14:52.537Z,64.51
2022-09-03T10:17:37.086Z,66.86
2022-09-03T10:20:31.478Z,69.10
2022-09-03T10:23:06.447Z,70.05
2022-09-03T10:26:04.520Z,74.22
2022-09-03T10:28:39.363Z,72.38
2022-09-03T10:31:24.704Z,70.96
2022-09-03T10:34:01.864Z,69.94
2022-09-03T10:36:40.357Z,70.30
2022-09-03T10:39:16.895Z,70.07
2022-09-03T10:42:02.706Z,71.64
2022-09-03T10:44:56.999Z,67.99
2022-09-03T10:48:05.341Z,67.30
2022-09-03T10:50:48.417Z,68.88
2022-09-03T10:53:42.576Z,72.19
2022-09-03T10:56:18.429Z,72.77
2022-09-03T10:59:17.315Z,77.77
2022-09-03T11:02:04.087Z,82.34
2022-09-03T11:04:49.403Z,80.58
2022-09-03T11:07:22.295Z,81.19
2022-09-03T11:10:04.149Z,80.71
2022-09-03T11:12:39.767Z,79.03
2022-09-03T11:15:22.623Z,79.19
2022-09-03T11:18:02.342Z,79.26
2022-09-03T11:20:32.220Z,84.61
2022-09-03T11:23:05.556Z,86.04
2022-09-03T11:25:44.177Z,85.09
2022-09-03T11:28:28.441Z,85.47
2022-09-03T11:31:19.735Z,88.20
2022-09-03T11:33:55.716Z,93.66
2022-09-03T11:36:33.282Z,90.75
2022-09-03T11:39:02.581Z,90.95
2022-09-03T11:41:36.769Z,95.40
2022-09-03T11:44:19.670Z,95.94
2022-09-03T11:46:59.269Z,93.23
2022-09-03T11:49:32.195Z,94.13
2022-09-03T11:52:03.486Z,92.98
2022-09-03T11:54:44.623Z,99.02
2022-09-03T11:57:22.291Z,92.93
2022-09-03T11:59:51.093Z,91.00
2022-09-03T12:02:28.993Z,91.30
2022-09-03T12:05:20.113Z,92.96
2022-09-03T12:08:43.562Z,86.18
2022-09-03T12:11:36.065Z,88.58
2022-09-03T12:14:18.425Z,84.86
2022-09-03T12:17:11.878Z,79.90
2022-09-03T12:19:50.892Z,73.01
2022-09-03T12:22:21.951Z,71.07
2022-09-03T12:24:52.644Z,71.02
2022-09-03T12:27:25.297Z,73.63
2022-09-03T12:30:00.175Z,72.72
2022-09-03T12:32:32.262Z,66.97
2022-09-03T12:35:13.289Z,63.38
2022-09-03T12:40:34.402Z,59.21
2022-09-03T12:46:13.291Z,66.67
2022-09-03T12:51:52.615Z,72.16
2022-09-03T12:54:24.081Z,75.74
2022-09-03T12:57:01.431Z,76.87
2022-09-03T12:59:36.168Z,76.62
2022-09-03T13:02:17.411Z,78.60
2022-09-03T13:04:47.992Z,76.24
2022-09-03T13:07:28.777Z,79.96
2022-09-03T13:10:06.971Z,80.33
2022-09-03T13:12:44.836Z,81.84
2022-09-03T13:15:23.488Z,82.29
2022-09-03T13:18:24.896Z,79.83
2022-09-03T13:21:12.339Z,79.54
2022-09-03T13:24:17.504Z,71.60
2022-09-03T13:27:06.092Z,67.41
2022-09-03T13:30:05.382Z,71.87
2022-09-03T13:32:51.152Z,68.54
2022-09-03T13:35:32.400Z,71.39
2022-09-03T13:38:14.709Z,76.48
2022-09-03T13:40:50.718Z,77.12
2022-09-03T13:43:30.842Z,77.10
2022-09-03T13:46:04.353Z,78.10
2022-09-03T13:48:57.781Z,81.68
2022-09-03T13:51:31.821Z,81.28
2022-09-03T13:54:13.462Z,83.32
2022-09-03T13:56:57.734Z,83.10
2022-09-03T13:59:39.711Z,84.57
2022-09-03T14:02:22.265Z,82.32
2022-09-03T14:05:06.302Z,80.35
2022-09-03T14:07:59.290Z,83.14
2022-09-03T14:10:52.419Z,82.75
2022-09-03T14:13:33.396Z,81.90
2022-09-03T14:16:11.915Z,84.13
2022-09-03T14:18:58.754Z,85.04
2022-09-03T14:21:35.901Z,89.24
2022-09-03T14:24:16.122Z,84.64
2022-09-03T14:26:53.849Z,87.98
2022-09-03T14:29:28.066Z,92.50
2022-09-03T14:32:24.721Z,91.21
2022-09-03T14:35:19.713Z,92.24
2022-09-03T14:38:46.270Z,94.00
2022-09-03T14:41:50.557Z,93.43
2022-09-03T14:44:45.231Z,97.59
2022-09-03T14:47:34.152Z,100.00
2022-09-03T14:50:23.626Z,100.00
2022-09-03T14:53:27.857Z,100.00
2022-09-03T14:56:26.702Z,100.00
2022-09-03T14:59:28.853Z,100.00
2022-09-03T15:02:26.410Z,100.00
2022-09-03T15:05:16.473Z,100.00
2022-09-03T15:07:54.117Z,100.00
2022-09-03T15:10:32.939Z,100.00
2022-09-03T15:13:12.928Z,100.00
2022-09-03T15:16:09.888Z,100.00
2022-09-03T15:19:03.948Z,100.00
2022-09-03T15:21:57.293Z,100.00
2022-09-03T15:24:44.278Z,100.00
2022-09-03T15:27:36.894Z,100.00
2022-09-03T15:30:12.193Z,100.00
2022-09-03T15:32:58.030Z,100.00
2022-09-03T15:36:02.719Z,100.00
2022-09-03T15:38:45.214Z,100.00
2022-09-03T15:41:35.791Z,100.00
2022-09-03T15:44:18.382Z,100.00
2022-09-03T15:46:57.916Z,100.00
2022-09-03T15:49:45.797Z,100.00
2022-09-03T15:52:33.601Z,100.00
2022-09-03T15:55:12.228Z,100.00
2022-09-03T15:57:54.730Z,100.00
2022-09-03T16:00:23.786Z,100.00
2022-09-03T16:03:08.070Z,100.00
2022-09-03T16:05:43.505Z,100.00
2022-09-03T16:08:25.992Z,100.00
2022-09-03T16:11:08.677Z,100.00
2022-09-03T16:13:54.180Z,100.00
2022-09-03T16:16:31.094Z,100.00
2022-09-03T16:19:10.898Z,100.00
2022-09-03T16:21:50.807Z,100.00
2022-09-03T16:24:27.518Z,100.00
2022-09-03T16:27:04.266Z,100.00
2022-09-03T16:29:33.332Z,100.00
2022-09-03T16:32:26.990Z,100.00
2022-09-03T16:35:10.146Z,100.00
2022-09-03T16:38:00.298Z,100.00
2022-09-03T16:40:42.184Z,100.00
2022-09-03T16:43:42.752Z,100.00
2022-09-03T16:46:26.462Z,100.00
2022-09-03T16:49:29.372Z,100.00
2022-09-03T16:52:13.568Z,100.00
2022-09-03T16:55:05.026Z,100.00
2022-09-03T16:57:50.287Z,100.00
2022-09-03T17:00:22.929Z,100.00
2022-09-03T17:03:26.509Z,100.00
2022-09-03T17:06:27.523Z,100.00
2022-09-03T17:09:14.671Z,100.00
2022-09-03T17:12:00.399Z,100.00
2022-09-03T17:15:09.334Z,100.00
2022-09-03T17:18:17.636Z,100.00
2022-09-03T17:21:06.340Z,100.00
2022-09-03T17:24:21.967Z,100.00
2022-09-03T17:27:10.603Z,100.00
2022-09-03T17:29:56.731Z,100.00
2022-09-03T17:32:57.613Z,100.00
2022-09-03T17:35:42.935Z,100.00
2022-09-03T17:38:39.281Z,100.00
2022-09-03T17:41:24.848Z,100.00
2022-09-03T17:44:06.537Z,100.00
2022-09-03T17:46:47.491Z,100.00
2022-09-03T17:49:26.324Z,100.00
2022-09-03T17:52:07.211Z,100.00
2022-09-03T17:54:47.297Z,100.00
2022-09-03T17:57:26.779Z,100.00
2022-09-03T18:00:01.772Z,100.00
2022-09-03T18:02:38.676Z,100.00
2022-09-03T18:05:20.529Z,100.00
2022-09-03T18:08:00.019Z,100.00
2022-09-03T18:10:44.343Z,100.00
2022-09-03T18:13:41.525Z,100.00
2022-09-03T18:16:20.820Z,100.00
2022-09-03T18:18:53.650Z,100.00
2022-09-03T18:21:46.895Z,100.00
2022-09-03T18:24:50.682Z,100.00
2022-09-03T18:27:47.865Z,100.00
2022-09-03T18:30:36.119Z,100.00
2022-09-03T18:33:22.069Z,100.00
2022-09-03T18:36:08.202Z,100.00
2022-09-03T18:38:56.880Z,100.00
2022-09-03T18:42:12.975Z,100.00
2022-09-03T18:45:21.945Z,100.00
2022-09-03T18:48:26.862Z,100.00
2022-09-03T18:51:25.479Z,100.00
2022-09-03T18:54:50.654Z,100.00
2022-09-03T18:57:42.997Z,100.00
2022-09-03T19:00:32.273Z,100.00
2022-09-03T19:03:59.822Z,100.00
2022-09-03T19:06:56.803Z,100.00
2022-09-03T19:10:04.277Z,100.00
2022-09-03T19:13:09.927Z,100.00
2022-09-03T19:16:11.530Z,100.00
2022-09-03T19:19:26.612Z,100.00
2022-09-03T19:22:23.716Z,100.00
2022-09-03T19:25:20.992Z,100.00
2022-09-03T19:28:25.401Z,100.00
2022-09-03T19:31:30.258Z,100.00
2022-09-03T19:34:36.171Z,100.00
2022-09-03T19:37:32.168Z,100.00
2022-09-03T19:40:43.379Z,100.00
2022-09-03T19:43:42.972Z,100.00
2022-09-03T19:46:38.085Z,100.00
2022-09-03T19:49:44.451Z,100.00
2022-09-03T19:52:48.532Z,100.00
2022-09-03T19:55:45.060Z,100.00
2022-09-03T19:58:43.527Z,100.00
2022-09-03T20:01:31.612Z,100.00
2022-09-03T20:04:25.355Z,100.00
2022-09-03T20:07:12.487Z,100.00
2022-09-03T20:10:01.678Z,100.00
2022-09-03T20:12:36.317Z,100.00
2022-09-03T20:15:07.561Z,100.00
2022-09-03T20:17:51.093Z,100.00
2022-09-03T20:20:33.355Z,100.00
2022-09-03T20:23:12.738Z,100.00
2022-09-03T20:26:10.431Z,100.00
2022-09-03T20:29:03.638Z,100.00
2022-09-03T20:31:45.106Z,100.00
2022-09-03T20:34:34.165Z,100.00
2022-09-03T20:37:16.801Z,100.00
2022-09-03T20:40:06.468Z,100.00
2022-09-03T20:43:04.150Z,100.00
2022-09-03T20:45:44.504Z,100.00
2022-09-03T20:48:23.522Z,100.00
2022-09-03T20:50:59.281Z,100.00
2022-09-03T20:53:54.903Z,100.00
2022-09-03T20:56:33.481Z,100.00
2022-09-03T20:59:15.241Z,100.00
2022-09-03T21:01:56.499Z,100.00
2022-09-03T21:04:48.724Z,100.00
2022-09-03T21:07:35.731Z,100.00
2022-09-03T21:10:18.950Z,100.00
2022-09-03T21:13:02.995Z,100.00
2022-09-03T21:15:47.193Z,100.00
2022-09-03T21:18:30.211Z,100.00
2022-09-03T21:21:13.093Z,100.00
2022-09-03T21:23:48.043Z,100.00
2022-09-03T21:26:22.998Z,100.00
2022-09-03T21:29:03.391Z,100.00
2022-09-03T21:31:49.798Z,100.00
2022-09-03T21:34:26.490Z,100.00
2022-09-03T21:36:58.167Z,100.00
2022-09-03T21:39:33.513Z,100.00
2022-09-03T21:42:08.416Z,100.00
2022-09-03T21:44:56.837Z,100.00
2022-09-03T21:47:29.236Z,100.00
2022-09-03T21:50:13.123Z,100.00
2022-09-03T21:52:54.013Z,100.00
2022-09-03T21:55:38.138Z,100.00
2022-09-03T21:58:26.161Z,100.00
2022-09-03T22:01:06.347Z,100.00
2022-09-03T22:03:34.694Z,100.00
2022-09-03T22:06:13.145Z,100.00
2022-09-03T22:08:51.899Z,100.00
2022-09-03T22:11:30.814Z,100.00
2022-09-03T22:14:09.851Z,100.00
2022-09-03T22:16:47.297Z,100.00
2022-09-03T22:19:17.777Z,100.00
2022-09-03T22:21:59.633Z,100.00
2022-09-03T22:24:43.770Z,100.00
2022-09-03T22:27:26.166Z,100.00
2022-09-03T22:30:06.992Z,100.00
2022-09-03T22:32:52.661Z,100.00
2022-09-03T22:35:53.088Z,100.00
2022-09-03T22:38:55.114Z,100.00
2022-09-03T22:41:47.116Z,100.00
2022-09-03T22:44:36.938Z,100.00
2022-09-03T22:47:19.752Z,100.00
2022-09-03T22:49:55.790Z,100.00
2022-09-03T22:52:35.800Z,100.00
2022-09-03T22:55:18.441Z,100.00
2022-09-03T22:57:58.593Z,100.00
2022-09-03T23:00:27.511Z,100.00
2022-09-03T23:03:09.904Z,100.00
2022-09-03T23:05:51.313Z,100.00
2022-09-03T23:08:29.941Z,100.00
2022-09-03T23:11:06.849Z,100.00
2022-09-03T23:13:42.061Z,100.00
2022-09-03T23:16:20.726Z,100.00
2022-09-03T23:18:51.425Z,100.00
2022-09-03T23:21:35.040Z,100.00
2022-09-03T23:24:12.011Z,100.00
2022-09-03T23:26:47.307Z,100.00
2022-09-03T23:29:26.093Z,100.00
2022-09-03T23:31:57.336Z,100.00
2022-09-03T23:34:26.590Z,100.00
2022-09-03T23:37:36.750Z,100.00
2022-09-03T23:40:28.938Z,100.00
2022-09-03T23:43:43.267Z,100.00
2022-09-03T23:46:20.980Z,100.00
2022-09-03T23:49:28.959Z,100.00
2022-09-03T23:52:33.905Z,100.00
2022-09-03T23:55:17.294Z,100.00
2022-09-03T23:57:58.968Z,100.00
